createdAt,value
2022-11-23T04:48:22.964Z,8.07
2022-11-23T04:51:26.141Z,8.48
2022-11-23T04:54:29.199Z,6.62
2022-11-23T04:57:32.375Z,6.22
2022-11-23T05:00:34.998Z,6.10
2022-11-23T05:03:38.267Z,5.57
2022-11-23T05:06:41.280Z,6.47
2022-11-23T05:09:44.250Z,5.80
2022-11-23T05:12:50.314Z,5.30
2022-11-23T05:15:52.964Z,6.47
2022-11-23T05:18:56.885Z,5.72
2022-11-23T05:21:59.794Z,4.95
2022-11-23T05:25:03.252Z,5.87
2022-11-23T05:28:38.007Z,5.10
2022-11-23T05:31:30.078Z,6.25
2022-11-23T05:34:33.065Z,5.68
2022-11-23T05:37:36.403Z,6.10
2022-11-23T05:40:39.356Z,6.30
2022-11-23T05:43:41.970Z,5.90
2022-11-23T05:46:44.953Z,6.80
2022-11-23T05:49:47.589Z,5.45
2022-11-23T05:52:50.700Z,5.18
2022-11-23T05:55:53.362Z,5.73
2022-11-23T05:58:56.606Z,6.53
2022-11-23T06:01:59.255Z,7.53
2022-11-23T06:05:03.056Z,7.97
2022-11-23T06:08:06.348Z,5.60
2022-11-23T06:11:09.266Z,7.13
2022-11-23T06:14:14.364Z,5.87
2022-11-23T06:17:17.703Z,6.87
2022-11-23T06:20:20.305Z,6.28
2022-11-23T06:23:24.981Z,5.97
2022-11-23T06:26:27.445Z,5.75
2022-11-23T06:29:30.565Z,6.22
2022-11-23T06:32:33.249Z,7.20
2022-11-23T06:35:36.188Z,5.90
2022-11-23T06:38:38.850Z,5.93
2022-11-23T06:41:42.775Z,5.37
2022-11-23T06:44:45.380Z,6.10
2022-11-23T06:47:50.259Z,5.87
2022-11-23T06:50:54.907Z,7.05
2022-11-23T06:53:58.925Z,7.15
2022-11-23T06:57:01.792Z,6.85
2022-11-23T07:00:05.360Z,6.32
2022-11-23T07:03:24.425Z,5.70
2022-11-23T07:06:28.051Z,5.82
2022-11-23T07:09:31.129Z,6.65
2022-11-23T07:12:35.691Z,5.55
2022-11-23T07:15:38.878Z,5.28
2022-11-23T07:21:45.274Z,7.43
2022-11-23T07:24:47.976Z,5.95
2022-11-23T07:27:58.335Z,5.80
2022-11-23T07:31:00.962Z,6.53
2022-11-23T07:34:04.876Z,5.62
2022-11-23T07:37:07.807Z,5.95
2022-11-23T07:40:10.733Z,6.17
2022-11-23T07:43:13.876Z,5.57
2022-11-23T07:46:16.343Z,5.90
2022-11-23T07:49:18.916Z,5.95
2022-11-23T07:52:21.243Z,5.60
2022-11-23T07:55:24.296Z,5.90
2022-11-23T07:58:26.797Z,5.87
2022-11-23T08:01:31.568Z,6.83
2022-11-23T08:04:34.456Z,5.62
2022-11-23T08:07:37.199Z,5.47
2022-11-23T08:10:45.070Z,6.15
2022-11-23T08:13:49.557Z,4.95
2022-11-23T08:16:52.343Z,4.43
2022-11-23T08:19:54.827Z,5.20
2022-11-23T08:22:58.555Z,5.43
2022-11-23T08:26:06.661Z,4.93
2022-11-23T08:29:13.122Z,4.90
2022-11-23T08:32:15.501Z,4.95
2022-11-23T08:35:18.136Z,5.32
2022-11-23T08:38:20.426Z,4.55
2022-11-23T08:41:23.486Z,4.37
2022-11-23T08:44:25.764Z,5.83
2022-11-23T08:47:28.389Z,4.53
2022-11-23T08:50:32.256Z,4.37
2022-11-23T08:53:34.817Z,4.28
2022-11-23T08:56:37.119Z,4.00
2022-11-23T08:59:39.661Z,4.80
2022-11-23T09:02:41.996Z,4.15
2022-11-23T09:05:44.607Z,4.97
2022-11-23T09:08:47.119Z,4.50
2022-11-23T09:11:49.853Z,3.70
2022-11-23T09:14:53.299Z,4.68
2022-11-23T09:17:57.504Z,4.45
2022-11-23T09:21:03.562Z,4.32
2022-11-23T09:24:06.619Z,4.55
2022-11-23T09:27:08.967Z,3.62
2022-11-23T09:30:13.079Z,5.12
2022-11-23T09:33:15.671Z,4.32
2022-11-23T09:36:18.276Z,4.82
2022-11-23T09:39:20.712Z,4.32
2022-11-23T09:42:46.493Z,4.17
2022-11-23T09:45:54.839Z,4.82
2022-11-23T09:49:08.089Z,4.32
2022-11-23T09:52:16.926Z,5.37
2022-11-23T09:55:41.062Z,3.97
2022-11-23T09:58:43.521Z,3.90
2022-11-23T10:01:46.109Z,4.62
2022-11-23T10:04:49.301Z,4.60
2022-11-23T10:08:17.934Z,4.53
2022-11-23T10:12:02.605Z,4.22
2022-11-23T10:15:19.444Z,4.30
2022-11-23T10:18:50.559Z,3.80
2022-11-23T10:22:17.091Z,4.07
2022-11-23T10:25:21.593Z,4.85
2022-11-23T10:28:24.330Z,4.53
2022-11-23T10:31:28.957Z,3.92
2022-11-23T10:34:57.070Z,4.53
2022-11-23T10:38:18.164Z,3.87
2022-11-23T10:41:21.265Z,4.20
2022-11-23T10:44:38.747Z,4.15
2022-11-23T10:47:48.877Z,4.55
2022-11-23T10:50:51.495Z,4.55
2022-11-23T10:54:06.644Z,4.28
2022-11-23T10:57:34.782Z,3.47
2022-11-23T11:00:37.177Z,3.97
2022-11-23T11:03:40.190Z,3.67
2022-11-23T11:06:42.541Z,3.87
2022-11-23T11:09:54.509Z,5.40
2022-11-23T11:12:57.098Z,3.95
2022-11-23T11:16:05.785Z,6.27
2022-11-23T11:19:27.635Z,3.95
2022-11-23T11:22:35.509Z,4.85
2022-11-23T11:25:39.305Z,4.85
2022-11-23T11:28:44.005Z,5.47
2022-11-23T11:31:54.867Z,4.65
2022-11-23T11:35:22.539Z,5.12
2022-11-23T11:38:31.624Z,4.70
2022-11-23T11:41:36.390Z,3.47
2022-11-23T11:44:43.040Z,5.05
2022-11-23T11:47:54.027Z,4.85
2022-11-23T11:51:03.334Z,3.92
2022-11-23T11:54:21.275Z,4.70
2022-11-23T11:57:40.011Z,4.57
2022-11-23T12:00:45.262Z,4.00
2022-11-23T12:03:53.141Z,4.55
2022-11-23T12:07:08.408Z,5.22
2022-11-23T12:10:17.403Z,3.92
2022-11-23T12:13:25.747Z,4.20
2022-11-23T12:17:24.901Z,4.55
2022-11-23T12:20:28.943Z,3.22
2022-11-23T12:24:02.650Z,3.87
2022-11-23T12:27:36.549Z,4.63
2022-11-23T12:31:05.825Z,4.30
2022-11-23T12:34:27.442Z,4.25
2022-11-23T12:37:50.897Z,3.78
2022-11-23T12:41:09.951Z,3.87
2022-11-23T12:44:24.856Z,5.15
2022-11-23T12:47:33.628Z,4.28
2022-11-23T12:50:45.736Z,4.53
2022-11-23T12:54:12.488Z,4.70
2022-11-23T12:57:28.618Z,3.97
2022-11-23T13:00:36.859Z,4.00
2022-11-23T13:04:04.529Z,4.35
2022-11-23T13:07:40.025Z,3.83
2022-11-23T13:11:11.070Z,3.60
2022-11-23T13:14:35.332Z,4.18
2022-11-23T13:17:54.547Z,4.25
2022-11-23T13:21:14.235Z,3.70
2022-11-23T13:24:35.803Z,3.92
2022-11-23T13:27:48.122Z,4.30
2022-11-23T13:31:16.811Z,3.35
2022-11-23T13:34:54.808Z,4.10
2022-11-23T13:37:57.376Z,4.22
2022-11-23T13:41:00.752Z,3.20
2022-11-23T13:44:19.131Z,3.60
2022-11-23T13:47:21.635Z,3.87
2022-11-23T13:50:24.418Z,3.85
2022-11-23T13:53:26.959Z,4.55
2022-11-23T13:56:29.484Z,3.80
2022-11-23T13:59:34.709Z,4.40
2022-11-23T14:02:37.347Z,4.05
2022-11-23T14:05:48.997Z,4.33
2022-11-23T14:09:00.189Z,3.30
2022-11-23T14:12:11.956Z,4.37
2022-11-23T14:15:19.449Z,4.10
2022-11-23T14:18:43.957Z,3.80
2022-11-23T14:22:06.388Z,3.97
2022-11-23T14:25:27.290Z,3.85
2022-11-23T14:28:48.605Z,4.82
2022-11-23T14:32:28.732Z,4.00
2022-11-23T14:35:36.522Z,3.65
2022-11-23T14:38:48.236Z,4.70
2022-11-23T14:41:54.786Z,3.83
2022-11-23T14:45:04.656Z,4.47
2022-11-23T14:48:28.861Z,3.97
2022-11-23T14:51:32.961Z,4.87
2022-11-23T14:54:35.589Z,3.92
2022-11-23T14:57:46.025Z,4.85
2022-11-23T15:00:49.821Z,5.07
2022-11-23T15:03:57.485Z,5.35
2022-11-23T15:07:16.802Z,5.45
2022-11-23T15:10:24.883Z,4.53
2022-11-23T15:13:30.020Z,4.78
2022-11-23T15:16:42.422Z,5.15
2022-11-23T15:20:04.353Z,5.65
2022-11-23T15:23:07.279Z,5.20
2022-11-23T15:26:34.605Z,6.03
2022-11-23T15:29:39.204Z,4.97
2022-11-23T15:32:42.089Z,3.90
2022-11-23T15:35:44.937Z,5.60
2022-11-23T15:38:47.619Z,4.62
2022-11-23T15:44:55.299Z,4.75
2022-11-23T15:48:00.842Z,4.93
2022-11-23T15:51:06.536Z,4.93
2022-11-23T15:54:18.573Z,4.80
2022-11-23T15:57:26.147Z,4.75
2022-11-23T16:00:28.714Z,4.82
2022-11-23T16:03:40.380Z,5.40
2022-11-23T16:06:47.684Z,5.55
2022-11-23T16:10:03.019Z,4.65
2022-11-23T16:13:08.728Z,4.87
2022-11-23T16:16:17.410Z,4.93
2022-11-23T16:19:27.779Z,5.43
2022-11-23T16:22:40.080Z,6.20
2022-11-23T16:25:42.508Z,6.12
2022-11-23T16:28:59.298Z,6.30
2022-11-23T16:32:02.913Z,6.28
2022-11-23T16:35:17.293Z,6.45
2022-11-23T16:38:20.468Z,7.22
2022-11-23T16:41:23.226Z,6.72
2022-11-23T16:44:25.529Z,6.07
2022-11-23T16:47:29.370Z,6.10
2022-11-23T16:50:34.385Z,6.15
2022-11-23T16:54:07.899Z,6.82
